sensor_id;sensor_type;location;lat;lon;timestamp;P1;durP1;ratioP1;P2;durP2;ratioP2
65971;SDS011;52726;48.852;9.152;2023-03-24T00:02:05;3.47;;;2.00;;
65971;SDS011;52726;48.852;9.152;2023-03-24T00:04:31;1.27;;;1.17;;
65971;SDS011;52726;48.852;9.152;2023-03-24T00:06:57;2.55;;;1.67;;
65971;SDS011;52726;48.852;9.152;2023-03-24T00:09:25;3.70;;;2.08;;
65971;SDS011;52726;48.852;9.152;2023-03-24T00:11:52;4.75;;;1.55;;
65971;SDS011;52726;48.852;9.152;2023-03-24T00:14:18;2.05;;;1.85;;
65971;SDS011;52726;48.852;9.152;2023-03-24T00:16:43;2.78;;;1.33;;
65971;SDS011;52726;48.852;9.152;2023-03-24T00:19:09;3.42;;;2.15;;
65971;SDS011;52726;48.852;9.152;2023-03-24T00:21:37;3.03;;;1.30;;
65971;SDS011;52726;48.852;9.152;2023-03-24T00:24:03;2.75;;;1.50;;
65971;SDS011;52726;48.852;9.152;2023-03-24T00:26:29;5.30;;;1.85;;
65971;SDS011;52726;48.852;9.152;2023-03-24T00:28:56;3.72;;;1.70;;
65971;SDS011;52726;48.852;9.152;2023-03-24T00:31:22;3.25;;;1.75;;
65971;SDS011;52726;48.852;9.152;2023-03-24T00:33:48;2.17;;;1.80;;
65971;SDS011;52726;48.852;9.152;2023-03-24T00:36:18;3.55;;;1.70;;
65971;SDS011;52726;48.852;9.152;2023-03-24T00:38:45;2.88;;;2.03;;
65971;SDS011;52726;48.852;9.152;2023-03-24T00:41:12;2.83;;;1.77;;
65971;SDS011;52726;48.852;9.152;2023-03-24T00:43:38;1.95;;;1.70;;
65971;SDS011;52726;48.852;9.152;2023-03-24T00:46:05;2.38;;;1.88;;
65971;SDS011;52726;48.852;9.152;2023-03-24T00:48:35;3.30;;;1.75;;
65971;SDS011;52726;48.852;9.152;2023-03-24T00:51:02;1.70;;;1.60;;
65971;SDS011;52726;48.852;9.152;2023-03-24T00:53:32;2.55;;;1.88;;
65971;SDS011;52726;48.852;9.152;2023-03-24T00:55:59;2.92;;;2.00;;
65971;SDS011;52726;48.852;9.152;2023-03-24T00:58:25;3.50;;;1.70;;
65971;SDS011;52726;48.852;9.152;2023-03-24T01:00:53;1.60;;;1.50;;
65971;SDS011;52726;48.852;9.152;2023-03-24T01:03:20;1.70;;;1.60;;
65971;SDS011;52726;48.852;9.152;2023-03-24T01:05:50;2.72;;;1.60;;
65971;SDS011;52726;48.852;9.152;2023-03-24T01:08:18;2.67;;;1.40;;
65971;SDS011;52726;48.852;9.152;2023-03-24T01:10:44;1.52;;;1.17;;
65971;SDS011;52726;48.852;9.152;2023-03-24T01:13:21;1.70;;;1.60;;
65971;SDS011;52726;48.852;9.152;2023-03-24T01:15:52;1.10;;;1.05;;
65971;SDS011;52726;48.852;9.152;2023-03-24T01:18:18;1.80;;;1.65;;
65971;SDS011;52726;48.852;9.152;2023-03-24T01:20:45;2.95;;;1.45;;
65971;SDS011;52726;48.852;9.152;2023-03-24T01:23:13;1.58;;;1.42;;
65971;SDS011;52726;48.852;9.152;2023-03-24T01:25:41;2.38;;;1.52;;
65971;SDS011;52726;48.852;9.152;2023-03-24T01:28:12;1.63;;;1.38;;
65971;SDS011;52726;48.852;9.152;2023-03-24T01:33:06;1.98;;;1.63;;
65971;SDS011;52726;48.852;9.152;2023-03-24T01:35:31;2.60;;;1.50;;
65971;SDS011;52726;48.852;9.152;2023-03-24T01:37:57;2.20;;;1.50;;
65971;SDS011;52726;48.852;9.152;2023-03-24T01:40:27;2.10;;;1.85;;
65971;SDS011;52726;48.852;9.152;2023-03-24T01:42:54;2.20;;;1.42;;
65971;SDS011;52726;48.852;9.152;2023-03-24T01:48:26;2.13;;;1.83;;
65971;SDS011;52726;48.852;9.152;2023-03-24T01:51:00;2.10;;;1.55;;
65971;SDS011;52726;48.852;9.152;2023-03-24T01:53:29;1.33;;;1.23;;
65971;SDS011;52726;48.852;9.152;2023-03-24T01:55:55;1.90;;;1.60;;
65971;SDS011;52726;48.852;9.152;2023-03-24T01:58:22;1.55;;;1.40;;
65971;SDS011;52726;48.852;9.152;2023-03-24T02:00:51;3.70;;;1.60;;
65971;SDS011;52726;48.852;9.152;2023-03-24T02:03:18;3.10;;;1.52;;
65971;SDS011;52726;48.852;9.152;2023-03-24T02:05:46;1.45;;;1.33;;
65971;SDS011;52726;48.852;9.152;2023-03-24T02:08:27;3.90;;;2.00;;
65971;SDS011;52726;48.852;9.152;2023-03-24T02:10:54;1.67;;;1.48;;
65971;SDS011;52726;48.852;9.152;2023-03-24T02:13:20;1.75;;;1.42;;
65971;SDS011;52726;48.852;9.152;2023-03-24T02:15:57;2.85;;;1.60;;
65971;SDS011;52726;48.852;9.152;2023-03-24T02:18:56;1.92;;;1.30;;
65971;SDS011;52726;48.852;9.152;2023-03-24T02:21:41;3.53;;;1.70;;
65971;SDS011;52726;48.852;9.152;2023-03-24T02:38:18;1.65;;;1.00;;
65971;SDS011;52726;48.852;9.152;2023-03-24T02:44:02;1.88;;;1.38;;
65971;SDS011;52726;48.852;9.152;2023-03-24T02:46:51;1.80;;;1.42;;
65971;SDS011;52726;48.852;9.152;2023-03-24T02:52:05;2.05;;;1.30;;
65971;SDS011;52726;48.852;9.152;2023-03-24T02:57:03;1.80;;;1.27;;
65971;SDS011;52726;48.852;9.152;2023-03-24T03:02:33;2.85;;;1.15;;
65971;SDS011;52726;48.852;9.152;2023-03-24T03:05:13;1.40;;;1.25;;
65971;SDS011;52726;48.852;9.152;2023-03-24T03:07:47;1.00;;;0.98;;
65971;SDS011;52726;48.852;9.152;2023-03-24T03:10:16;1.27;;;1.15;;
65971;SDS011;52726;48.852;9.152;2023-03-24T03:12:47;1.35;;;1.25;;
65971;SDS011;52726;48.852;9.152;2023-03-24T03:15:27;2.00;;;1.23;;
65971;SDS011;52726;48.852;9.152;2023-03-24T03:18:15;2.28;;;1.50;;
65971;SDS011;52726;48.852;9.152;2023-03-24T03:20:48;1.25;;;1.02;;
65971;SDS011;52726;48.852;9.152;2023-03-24T03:23:24;1.30;;;1.20;;
65971;SDS011;52726;48.852;9.152;2023-03-24T03:25:59;1.70;;;1.27;;
65971;SDS011;52726;48.852;9.152;2023-03-24T03:28:39;1.48;;;1.15;;
65971;SDS011;52726;48.852;9.152;2023-03-24T03:31:14;2.33;;;1.13;;
65971;SDS011;52726;48.852;9.152;2023-03-24T03:33:48;1.92;;;1.33;;
65971;SDS011;52726;48.852;9.152;2023-03-24T03:36:42;1.33;;;1.15;;
65971;SDS011;52726;48.852;9.152;2023-03-24T03:39:20;1.42;;;1.17;;
65971;SDS011;52726;48.852;9.152;2023-03-24T03:41:52;2.00;;;1.42;;
65971;SDS011;52726;48.852;9.152;2023-03-24T03:44:18;1.88;;;1.20;;
65971;SDS011;52726;48.852;9.152;2023-03-24T03:46:43;1.73;;;1.30;;
65971;SDS011;52726;48.852;9.152;2023-03-24T03:49:08;1.42;;;1.30;;
65971;SDS011;52726;48.852;9.152;2023-03-24T03:51:34;1.40;;;1.20;;
65971;SDS011;52726;48.852;9.152;2023-03-24T03:54:01;1.98;;;1.38;;
65971;SDS011;52726;48.852;9.152;2023-03-24T03:56:31;1.30;;;1.20;;
65971;SDS011;52726;48.852;9.152;2023-03-24T03:58:59;1.98;;;1.30;;
65971;SDS011;52726;48.852;9.152;2023-03-24T04:01:25;2.08;;;1.38;;
65971;SDS011;52726;48.852;9.152;2023-03-24T04:06:54;2.00;;;1.25;;
65971;SDS011;52726;48.852;9.152;2023-03-24T04:12:17;1.30;;;1.10;;
65971;SDS011;52726;48.852;9.152;2023-03-24T04:15:10;1.77;;;1.17;;
65971;SDS011;52726;48.852;9.152;2023-03-24T04:21:02;7.90;;;1.40;;
65971;SDS011;52726;48.852;9.152;2023-03-24T04:32:30;1.40;;;1.23;;
65971;SDS011;52726;48.852;9.152;2023-03-24T04:35:08;2.58;;;1.23;;
65971;SDS011;52726;48.852;9.152;2023-03-24T04:37:36;2.45;;;1.15;;
65971;SDS011;52726;48.852;9.152;2023-03-24T04:40:04;3.88;;;1.42;;
65971;SDS011;52726;48.852;9.152;2023-03-24T04:42:43;3.45;;;1.45;;
65971;SDS011;52726;48.852;9.152;2023-03-24T04:45:12;3.72;;;1.67;;
65971;SDS011;52726;48.852;9.152;2023-03-24T04:47:41;2.35;;;1.15;;
65971;SDS011;52726;48.852;9.152;2023-03-24T04:50:11;1.92;;;1.48;;
65971;SDS011;52726;48.852;9.152;2023-03-24T04:52:38;3.53;;;1.10;;
65971;SDS011;52726;48.852;9.152;2023-03-24T04:58:04;1.00;;;0.95;;
65971;SDS011;52726;48.852;9.152;2023-03-24T05:00:30;1.30;;;1.10;;
65971;SDS011;52726;48.852;9.152;2023-03-24T05:02:56;4.10;;;1.30;;
65971;SDS011;52726;48.852;9.152;2023-03-24T05:05:21;2.08;;;1.38;;
65971;SDS011;52726;48.852;9.152;2023-03-24T05:07:46;2.00;;;1.00;;
65971;SDS011;52726;48.852;9.152;2023-03-24T05:10:13;2.05;;;1.08;;
65971;SDS011;52726;48.852;9.152;2023-03-24T05:12:39;3.10;;;1.33;;
65971;SDS011;52726;48.852;9.152;2023-03-24T05:15:05;1.92;;;1.33;;
65971;SDS011;52726;48.852;9.152;2023-03-24T05:17:30;1.35;;;1.10;;
65971;SDS011;52726;48.852;9.152;2023-03-24T05:19:56;2.63;;;1.23;;
65971;SDS011;52726;48.852;9.152;2023-03-24T05:22:21;1.80;;;1.30;;
65971;SDS011;52726;48.852;9.152;2023-03-24T05:24:46;2.00;;;1.60;;
65971;SDS011;52726;48.852;9.152;2023-03-24T05:27:12;2.83;;;1.02;;
65971;SDS011;52726;48.852;9.152;2023-03-24T05:29:37;1.92;;;1.20;;
65971;SDS011;52726;48.852;9.152;2023-03-24T05:32:03;2.40;;;1.48;;
65971;SDS011;52726;48.852;9.152;2023-03-24T05:34:28;1.77;;;1.30;;
65971;SDS011;52726;48.852;9.152;2023-03-24T05:36:53;1.15;;;1.10;;
65971;SDS011;52726;48.852;9.152;2023-03-24T05:39:19;1.73;;;1.45;;
65971;SDS011;52726;48.852;9.152;2023-03-24T05:41:44;3.70;;;1.75;;
65971;SDS011;52726;48.852;9.152;2023-03-24T05:44:10;5.68;;;1.60;;
65971;SDS011;52726;48.852;9.152;2023-03-24T05:46:35;2.65;;;1.48;;
65971;SDS011;52726;48.852;9.152;2023-03-24T05:49:02;2.58;;;1.45;;
65971;SDS011;52726;48.852;9.152;2023-03-24T05:51:27;1.65;;;1.52;;
65971;SDS011;52726;48.852;9.152;2023-03-24T05:53:52;3.08;;;1.77;;
65971;SDS011;52726;48.852;9.152;2023-03-24T05:56:18;4.53;;;1.73;;
65971;SDS011;52726;48.852;9.152;2023-03-24T05:58:43;2.78;;;1.38;;
65971;SDS011;52726;48.852;9.152;2023-03-24T06:01:09;2.30;;;1.55;;
65971;SDS011;52726;48.852;9.152;2023-03-24T06:03:36;2.80;;;1.88;;
65971;SDS011;52726;48.852;9.152;2023-03-24T06:06:03;2.20;;;1.80;;
65971;SDS011;52726;48.852;9.152;2023-03-24T06:08:30;1.63;;;1.52;;
65971;SDS011;52726;48.852;9.152;2023-03-24T06:11:01;2.22;;;1.40;;
65971;SDS011;52726;48.852;9.152;2023-03-24T06:13:28;2.35;;;1.80;;
65971;SDS011;52726;48.852;9.152;2023-03-24T06:15:57;2.63;;;1.92;;
65971;SDS011;52726;48.852;9.152;2023-03-24T06:18:24;1.40;;;1.30;;
65971;SDS011;52726;48.852;9.152;2023-03-24T06:20:51;4.97;;;1.65;;
65971;SDS011;52726;48.852;9.152;2023-03-24T06:23:20;2.88;;;1.75;;
65971;SDS011;52726;48.852;9.152;2023-03-24T06:25:52;2.60;;;1.83;;
65971;SDS011;52726;48.852;9.152;2023-03-24T06:28:22;3.25;;;2.08;;
65971;SDS011;52726;48.852;9.152;2023-03-24T06:30:50;2.75;;;2.10;;
65971;SDS011;52726;48.852;9.152;2023-03-24T06:33:16;3.60;;;1.67;;
65971;SDS011;52726;48.852;9.152;2023-03-24T06:35:42;2.05;;;1.70;;
65971;SDS011;52726;48.852;9.152;2023-03-24T06:38:07;3.38;;;1.90;;
65971;SDS011;52726;48.852;9.152;2023-03-24T06:40:32;3.30;;;1.88;;
65971;SDS011;52726;48.852;9.152;2023-03-24T06:42:59;2.78;;;1.98;;
65971;SDS011;52726;48.852;9.152;2023-03-24T06:45:25;2.20;;;1.83;;
65971;SDS011;52726;48.852;9.152;2023-03-24T06:48:14;1.83;;;1.67;;
65971;SDS011;52726;48.852;9.152;2023-03-24T06:50:39;2.13;;;1.80;;
65971;SDS011;52726;48.852;9.152;2023-03-24T06:53:05;1.75;;;1.30;;
65971;SDS011;52726;48.852;9.152;2023-03-24T06:55:30;2.72;;;1.88;;
65971;SDS011;52726;48.852;9.152;2023-03-24T06:57:56;2.05;;;1.58;;
65971;SDS011;52726;48.852;9.152;2023-03-24T07:00:21;4.70;;;1.88;;
65971;SDS011;52726;48.852;9.152;2023-03-24T07:02:47;2.20;;;1.88;;
65971;SDS011;52726;48.852;9.152;2023-03-24T07:05:12;2.30;;;1.88;;
65971;SDS011;52726;48.852;9.152;2023-03-24T07:07:38;3.35;;;1.75;;
65971;SDS011;52726;48.852;9.152;2023-03-24T07:10:05;3.08;;;1.65;;
65971;SDS011;52726;48.852;9.152;2023-03-24T07:12:31;2.20;;;1.90;;
65971;SDS011;52726;48.852;9.152;2023-03-24T07:14:57;5.50;;;1.77;;
65971;SDS011;52726;48.852;9.152;2023-03-24T07:17:23;2.90;;;1.70;;
65971;SDS011;52726;48.852;9.152;2023-03-24T07:19:48;1.85;;;1.50;;
65971;SDS011;52726;48.852;9.152;2023-03-24T07:22:13;1.73;;;1.35;;
65971;SDS011;52726;48.852;9.152;2023-03-24T07:24:39;2.15;;;1.70;;
65971;SDS011;52726;48.852;9.152;2023-03-24T07:27:05;1.80;;;1.50;;
65971;SDS011;52726;48.852;9.152;2023-03-24T07:29:38;1.63;;;1.52;;
65971;SDS011;52726;48.852;9.152;2023-03-24T07:32:05;3.05;;;1.73;;
65971;SDS011;52726;48.852;9.152;2023-03-24T07:34:32;3.92;;;1.95;;
65971;SDS011;52726;48.852;9.152;2023-03-24T07:36:58;3.42;;;1.30;;
65971;SDS011;52726;48.852;9.152;2023-03-24T07:39:23;3.00;;;1.63;;
65971;SDS011;52726;48.852;9.152;2023-03-24T07:41:49;2.22;;;1.70;;
65971;SDS011;52726;48.852;9.152;2023-03-24T07:44:14;5.20;;;1.60;;
65971;SDS011;52726;48.852;9.152;2023-03-24T07:46:40;2.38;;;1.77;;
65971;SDS011;52726;48.852;9.152;2023-03-24T07:49:05;2.67;;;1.73;;
65971;SDS011;52726;48.852;9.152;2023-03-24T07:51:31;2.72;;;1.48;;
65971;SDS011;52726;48.852;9.152;2023-03-24T07:53:56;2.33;;;1.88;;
65971;SDS011;52726;48.852;9.152;2023-03-24T07:56:21;2.15;;;1.58;;
65971;SDS011;52726;48.852;9.152;2023-03-24T07:58:48;2.90;;;1.98;;
65971;SDS011;52726;48.852;9.152;2023-03-24T08:01:13;1.75;;;1.60;;
65971;SDS011;52726;48.852;9.152;2023-03-24T08:03:38;2.83;;;2.08;;
65971;SDS011;52726;48.852;9.152;2023-03-24T08:06:05;2.83;;;1.63;;
65971;SDS011;52726;48.852;9.152;2023-03-24T08:08:31;1.27;;;1.15;;
65971;SDS011;52726;48.852;9.152;2023-03-24T08:10:57;2.67;;;1.88;;
65971;SDS011;52726;48.852;9.152;2023-03-24T08:13:23;3.65;;;1.60;;
65971;SDS011;52726;48.852;9.152;2023-03-24T08:15:48;4.32;;;1.85;;
65971;SDS011;52726;48.852;9.152;2023-03-24T08:18:15;2.13;;;1.83;;
65971;SDS011;52726;48.852;9.152;2023-03-24T08:20:40;4.30;;;1.60;;
65971;SDS011;52726;48.852;9.152;2023-03-24T08:28:37;2.60;;;1.55;;
65971;SDS011;52726;48.852;9.152;2023-03-24T08:31:02;6.15;;;1.90;;
65971;SDS011;52726;48.852;9.152;2023-03-24T08:33:28;3.75;;;1.73;;
65971;SDS011;52726;48.852;9.152;2023-03-24T08:35:54;6.72;;;2.00;;
65971;SDS011;52726;48.852;9.152;2023-03-24T08:38:21;2.28;;;1.90;;
65971;SDS011;52726;48.852;9.152;2023-03-24T08:40:54;2.45;;;1.70;;
65971;SDS011;52726;48.852;9.152;2023-03-24T08:43:20;3.35;;;1.83;;
65971;SDS011;52726;48.852;9.152;2023-03-24T08:45:47;3.20;;;1.70;;
65971;SDS011;52726;48.852;9.152;2023-03-24T08:48:12;1.90;;;1.60;;
65971;SDS011;52726;48.852;9.152;2023-03-24T08:50:39;3.20;;;1.80;;
65971;SDS011;52726;48.852;9.152;2023-03-24T08:53:06;1.80;;;1.60;;
65971;SDS011;52726;48.852;9.152;2023-03-24T08:55:32;2.65;;;1.85;;
65971;SDS011;52726;48.852;9.152;2023-03-24T08:57:58;2.25;;;1.73;;
65971;SDS011;52726;48.852;9.152;2023-03-24T09:00:23;1.98;;;1.40;;
65971;SDS011;52726;48.852;9.152;2023-03-24T09:02:50;3.28;;;1.40;;
65971;SDS011;52726;48.852;9.152;2023-03-24T09:05:18;1.52;;;1.42;;
65971;SDS011;52726;48.852;9.152;2023-03-24T09:07:46;4.93;;;1.83;;
65971;SDS011;52726;48.852;9.152;2023-03-24T09:10:12;1.42;;;1.33;;
65971;SDS011;52726;48.852;9.152;2023-03-24T09:12:39;2.20;;;1.60;;
65971;SDS011;52726;48.852;9.152;2023-03-24T09:15:07;2.65;;;1.80;;
65971;SDS011;52726;48.852;9.152;2023-03-24T09:17:34;1.48;;;1.30;;
65971;SDS011;52726;48.852;9.152;2023-03-24T09:20:00;1.40;;;1.30;;
65971;SDS011;52726;48.852;9.152;2023-03-24T09:22:25;2.35;;;1.75;;
65971;SDS011;52726;48.852;9.152;2023-03-24T09:24:52;1.48;;;1.38;;
65971;SDS011;52726;48.852;9.152;2023-03-24T09:27:17;2.40;;;1.30;;
65971;SDS011;52726;48.852;9.152;2023-03-24T09:29:43;1.27;;;1.17;;
65971;SDS011;52726;48.852;9.152;2023-03-24T09:32:08;2.20;;;1.38;;
65971;SDS011;52726;48.852;9.152;2023-03-24T09:34:35;1.88;;;1.40;;
65971;SDS011;52726;48.852;9.152;2023-03-24T09:37:02;2.22;;;1.33;;
65971;SDS011;52726;48.852;9.152;2023-03-24T09:39:28;2.33;;;1.45;;
65971;SDS011;52726;48.852;9.152;2023-03-24T09:41:54;1.50;;;1.40;;
65971;SDS011;52726;48.852;9.152;2023-03-24T09:47:11;3.10;;;1.40;;
65971;SDS011;52726;48.852;9.152;2023-03-24T09:49:48;1.33;;;1.23;;
65971;SDS011;52726;48.852;9.152;2023-03-24T09:52:15;2.20;;;1.10;;
65971;SDS011;52726;48.852;9.152;2023-03-24T09:57:19;1.27;;;1.17;;
65971;SDS011;52726;48.852;9.152;2023-03-24T09:59:48;1.80;;;1.42;;
65971;SDS011;52726;48.852;9.152;2023-03-24T10:02:18;2.90;;;1.45;;
65971;SDS011;52726;48.852;9.152;2023-03-24T10:04:45;1.50;;;1.27;;
65971;SDS011;52726;48.852;9.152;2023-03-24T10:09:55;1.42;;;1.30;;
65971;SDS011;52726;48.852;9.152;2023-03-24T10:12:33;1.38;;;1.27;;
65971;SDS011;52726;48.852;9.152;2023-03-24T10:23:35;5.18;;;1.00;;
65971;SDS011;52726;48.852;9.152;2023-03-24T10:26:34;1.23;;;1.02;;
65971;SDS011;52726;48.852;9.152;2023-03-24T10:31:41;1.20;;;1.10;;
65971;SDS011;52726;48.852;9.152;2023-03-24T10:34:11;0.95;;;0.95;;
65971;SDS011;52726;48.852;9.152;2023-03-24T10:36:37;1.67;;;1.20;;
65971;SDS011;52726;48.852;9.152;2023-03-24T10:39:03;1.20;;;1.10;;
65971;SDS011;52726;48.852;9.152;2023-03-24T10:41:30;0.82;;;0.82;;
65971;SDS011;52726;48.852;9.152;2023-03-24T10:43:57;1.00;;;0.93;;
65971;SDS011;52726;48.852;9.152;2023-03-24T10:46:25;2.15;;;1.05;;
65971;SDS011;52726;48.852;9.152;2023-03-24T10:49:06;0.85;;;0.77;;
65971;SDS011;52726;48.852;9.152;2023-03-24T10:51:34;0.88;;;0.88;;
65971;SDS011;52726;48.852;9.152;2023-03-24T11:02:16;1.10;;;0.77;;
65971;SDS011;52726;48.852;9.152;2023-03-24T11:04:54;1.20;;;0.90;;
65971;SDS011;52726;48.852;9.152;2023-03-24T11:07:31;1.00;;;0.95;;
65971;SDS011;52726;48.852;9.152;2023-03-24T11:10:01;0.82;;;0.68;;
65971;SDS011;52726;48.852;9.152;2023-03-24T11:12:29;1.10;;;0.95;;
65971;SDS011;52726;48.852;9.152;2023-03-24T11:17:27;2.65;;;1.05;;
65971;SDS011;52726;48.852;9.152;2023-03-24T11:19:53;0.65;;;0.65;;
65971;SDS011;52726;48.852;9.152;2023-03-24T11:22:21;4.18;;;0.90;;
65971;SDS011;52726;48.852;9.152;2023-03-24T11:24:51;0.90;;;0.90;;
65971;SDS011;52726;48.852;9.152;2023-03-24T11:27:20;1.20;;;0.88;;
65971;SDS011;52726;48.852;9.152;2023-03-24T11:29:50;1.60;;;0.75;;
65971;SDS011;52726;48.852;9.152;2023-03-24T11:32:23;0.80;;;0.80;;
65971;SDS011;52726;48.852;9.152;2023-03-24T11:34:59;0.93;;;0.70;;
65971;SDS011;52726;48.852;9.152;2023-03-24T11:37:30;0.77;;;0.70;;
65971;SDS011;52726;48.852;9.152;2023-03-24T11:46:25;1.08;;;0.60;;
65971;SDS011;52726;48.852;9.152;2023-03-24T11:48:31;0.63;;;0.60;;
65971;SDS011;52726;48.852;9.152;2023-03-24T11:51:04;1.17;;;0.90;;
65971;SDS011;52726;48.852;9.152;2023-03-24T11:53:44;0.77;;;0.77;;
65971;SDS011;52726;48.852;9.152;2023-03-24T11:56:12;0.77;;;0.77;;
65971;SDS011;52726;48.852;9.152;2023-03-24T12:01:36;1.15;;;0.80;;
65971;SDS011;52726;48.852;9.152;2023-03-24T12:04:27;1.67;;;0.85;;
65971;SDS011;52726;48.852;9.152;2023-03-24T12:24:17;0.60;;;0.60;;
65971;SDS011;52726;48.852;9.152;2023-03-24T12:27:05;0.75;;;0.75;;
65971;SDS011;52726;48.852;9.152;2023-03-24T12:29:48;0.75;;;0.75;;
65971;SDS011;52726;48.852;9.152;2023-03-24T12:38:24;3.25;;;0.68;;
65971;SDS011;52726;48.852;9.152;2023-03-24T12:41:13;1.75;;;0.85;;
65971;SDS011;52726;48.852;9.152;2023-03-24T12:57:38;0.60;;;0.25;;
65971;SDS011;52726;48.852;9.152;2023-03-24T13:00:17;0.40;;;0.40;;
65971;SDS011;52726;48.852;9.152;2023-03-24T13:03:08;0.40;;;0.40;;
65971;SDS011;52726;48.852;9.152;2023-03-24T13:08:10;0.77;;;0.50;;
65971;SDS011;52726;48.852;9.152;2023-03-24T13:10:40;0.95;;;0.28;;
65971;SDS011;52726;48.852;9.152;2023-03-24T13:13:19;0.98;;;0.45;;
65971;SDS011;52726;48.852;9.152;2023-03-24T13:18:30;0.20;;;0.20;;
65971;SDS011;52726;48.852;9.152;2023-03-24T13:32:15;4.50;;;0.80;;
65971;SDS011;52726;48.852;9.152;2023-03-24T13:37:25;1.33;;;1.02;;
65971;SDS011;52726;48.852;9.152;2023-03-24T13:39:57;1.27;;;0.60;;
65971;SDS011;52726;48.852;9.152;2023-03-24T13:42:29;0.32;;;0.32;;
65971;SDS011;52726;48.852;9.152;2023-03-24T13:45:00;0.47;;;0.47;;
65971;SDS011;52726;48.852;9.152;2023-03-24T13:47:47;1.42;;;0.80;;
65971;SDS011;52726;48.852;9.152;2023-03-24T13:52:59;1.50;;;0.40;;
65971;SDS011;52726;48.852;9.152;2023-03-24T13:55:32;2.33;;;0.63;;
65971;SDS011;52726;48.852;9.152;2023-03-24T13:58:07;0.77;;;0.45;;
65971;SDS011;52726;48.852;9.152;2023-03-24T14:01:43;1.80;;;0.60;;
65971;SDS011;52726;48.852;9.152;2023-03-24T14:03:43;0.57;;;0.57;;
65971;SDS011;52726;48.852;9.152;2023-03-24T14:06:14;0.40;;;0.40;;
65971;SDS011;52726;48.852;9.152;2023-03-24T14:08:43;42.13;;;2.78;;
65971;SDS011;52726;48.852;9.152;2023-03-24T14:13:55;0.95;;;0.65;;
65971;SDS011;52726;48.852;9.152;2023-03-24T14:16:51;1.50;;;0.77;;
65971;SDS011;52726;48.852;9.152;2023-03-24T14:19:24;0.55;;;0.52;;
65971;SDS011;52726;48.852;9.152;2023-03-24T14:21:52;0.47;;;0.47;;
65971;SDS011;52726;48.852;9.152;2023-03-24T14:24:25;0.20;;;0.20;;
65971;SDS011;52726;48.852;9.152;2023-03-24T14:26:53;0.90;;;0.90;;
65971;SDS011;52726;48.852;9.152;2023-03-24T14:29:46;1.20;;;0.77;;
65971;SDS011;52726;48.852;9.152;2023-03-24T14:32:16;1.83;;;0.60;;
65971;SDS011;52726;48.852;9.152;2023-03-24T14:34:54;0.77;;;0.65;;
65971;SDS011;52726;48.852;9.152;2023-03-24T14:37:24;2.70;;;1.27;;
65971;SDS011;52726;48.852;9.152;2023-03-24T14:39:51;0.50;;;0.40;;
65971;SDS011;52726;48.852;9.152;2023-03-24T14:44:59;1.60;;;0.43;;
65971;SDS011;52726;48.852;9.152;2023-03-24T14:47:29;1.65;;;0.52;;
65971;SDS011;52726;48.852;9.152;2023-03-24T14:49:57;3.43;;;0.80;;
65971;SDS011;52726;48.852;9.152;2023-03-24T14:52:34;0.38;;;0.38;;
65971;SDS011;52726;48.852;9.152;2023-03-24T14:55:10;0.30;;;0.30;;
65971;SDS011;52726;48.852;9.152;2023-03-24T14:57:41;0.85;;;0.63;;
65971;SDS011;52726;48.852;9.152;2023-03-24T15:02:43;2.92;;;0.90;;
65971;SDS011;52726;48.852;9.152;2023-03-24T15:08:04;1.15;;;0.50;;
65971;SDS011;52726;48.852;9.152;2023-03-24T15:10:52;0.50;;;0.50;;
65971;SDS011;52726;48.852;9.152;2023-03-24T15:13:27;1.73;;;0.93;;
65971;SDS011;52726;48.852;9.152;2023-03-24T15:18:42;0.47;;;0.47;;
65971;SDS011;52726;48.852;9.152;2023-03-24T15:21:15;2.78;;;0.77;;
65971;SDS011;52726;48.852;9.152;2023-03-24T15:23:59;0.40;;;0.40;;
65971;SDS011;52726;48.852;9.152;2023-03-24T15:26:27;0.80;;;0.47;;
65971;SDS011;52726;48.852;9.152;2023-03-24T15:28:58;2.75;;;0.65;;
65971;SDS011;52726;48.852;9.152;2023-03-24T15:31:30;0.60;;;0.60;;
65971;SDS011;52726;48.852;9.152;2023-03-24T15:34:04;0.55;;;0.40;;
65971;SDS011;52726;48.852;9.152;2023-03-24T15:36:33;1.15;;;0.70;;
65971;SDS011;52726;48.852;9.152;2023-03-24T15:39:15;0.60;;;0.50;;
65971;SDS011;52726;48.852;9.152;2023-03-24T15:41:42;0.52;;;0.52;;
65971;SDS011;52726;48.852;9.152;2023-03-24T15:44:09;1.00;;;0.80;;
65971;SDS011;52726;48.852;9.152;2023-03-24T15:46:42;0.60;;;0.52;;
65971;SDS011;52726;48.852;9.152;2023-03-24T15:49:16;0.77;;;0.65;;
65971;SDS011;52726;48.852;9.152;2023-03-24T15:51:48;2.47;;;0.70;;
65971;SDS011;52726;48.852;9.152;2023-03-24T15:54:24;0.90;;;0.52;;
65971;SDS011;52726;48.852;9.152;2023-03-24T15:59:44;0.77;;;0.77;;
65971;SDS011;52726;48.852;9.152;2023-03-24T16:04:54;1.00;;;0.47;;
65971;SDS011;52726;48.852;9.152;2023-03-24T16:07:24;3.55;;;0.60;;
65971;SDS011;52726;48.852;9.152;2023-03-24T16:12:30;3.10;;;0.82;;
65971;SDS011;52726;48.852;9.152;2023-03-24T16:14:57;0.50;;;0.50;;
65971;SDS011;52726;48.852;9.152;2023-03-24T16:17:22;1.85;;;0.90;;
65971;SDS011;52726;48.852;9.152;2023-03-24T16:19:47;1.27;;;0.60;;
65971;SDS011;52726;48.852;9.152;2023-03-24T16:22:13;0.55;;;0.55;;
65971;SDS011;52726;48.852;9.152;2023-03-24T16:24:38;0.40;;;0.40;;
65971;SDS011;52726;48.852;9.152;2023-03-24T16:27:03;0.40;;;0.40;;
65971;SDS011;52726;48.852;9.152;2023-03-24T16:29:29;0.50;;;0.50;;
65971;SDS011;52726;48.852;9.152;2023-03-24T16:31:55;0.40;;;0.40;;
65971;SDS011;52726;48.852;9.152;2023-03-24T16:34:21;4.40;;;0.70;;
65971;SDS011;52726;48.852;9.152;2023-03-24T16:36:47;0.60;;;0.60;;
65971;SDS011;52726;48.852;9.152;2023-03-24T16:39:18;0.57;;;0.57;;
65971;SDS011;52726;48.852;9.152;2023-03-24T16:41:45;2.10;;;0.60;;
65971;SDS011;52726;48.852;9.152;2023-03-24T16:44:11;1.75;;;0.75;;
65971;SDS011;52726;48.852;9.152;2023-03-24T16:46:37;0.50;;;0.50;;
65971;SDS011;52726;48.852;9.152;2023-03-24T16:49:05;0.47;;;0.47;;
65971;SDS011;52726;48.852;9.152;2023-03-24T16:51:32;0.85;;;0.70;;
65971;SDS011;52726;48.852;9.152;2023-03-24T16:53:58;2.53;;;0.55;;
65971;SDS011;52726;48.852;9.152;2023-03-24T16:56:23;0.77;;;0.75;;
65971;SDS011;52726;48.852;9.152;2023-03-24T16:58:49;0.68;;;0.60;;
65971;SDS011;52726;48.852;9.152;2023-03-24T17:03:59;1.33;;;0.43;;
65971;SDS011;52726;48.852;9.152;2023-03-24T17:06:44;0.95;;;0.40;;
65971;SDS011;52726;48.852;9.152;2023-03-24T17:09:14;0.38;;;0.38;;
65971;SDS011;52726;48.852;9.152;2023-03-24T17:11:41;1.40;;;0.60;;
65971;SDS011;52726;48.852;9.152;2023-03-24T17:14:13;1.10;;;0.80;;
65971;SDS011;52726;48.852;9.152;2023-03-24T17:16:39;0.65;;;0.65;;
65971;SDS011;52726;48.852;9.152;2023-03-24T17:19:08;1.23;;;0.90;;
65971;SDS011;52726;48.852;9.152;2023-03-24T17:21:37;2.05;;;0.98;;
65971;SDS011;52726;48.852;9.152;2023-03-24T17:24:06;1.27;;;0.63;;
65971;SDS011;52726;48.852;9.152;2023-03-24T17:26:35;1.40;;;0.75;;
65971;SDS011;52726;48.852;9.152;2023-03-24T17:29:02;1.20;;;0.70;;
65971;SDS011;52726;48.852;9.152;2023-03-24T17:31:28;3.00;;;0.95;;
65971;SDS011;52726;48.852;9.152;2023-03-24T17:33:53;3.97;;;1.10;;
65971;SDS011;52726;48.852;9.152;2023-03-24T17:36:19;0.93;;;0.85;;
65971;SDS011;52726;48.852;9.152;2023-03-24T17:38:44;0.65;;;0.63;;
65971;SDS011;52726;48.852;9.152;2023-03-24T17:41:12;1.00;;;1.00;;
65971;SDS011;52726;48.852;9.152;2023-03-24T17:43:38;2.20;;;1.15;;
65971;SDS011;52726;48.852;9.152;2023-03-24T17:46:03;2.28;;;1.13;;
65971;SDS011;52726;48.852;9.152;2023-03-24T17:48:29;1.08;;;0.98;;
65971;SDS011;52726;48.852;9.152;2023-03-24T17:50:55;1.55;;;0.90;;
65971;SDS011;52726;48.852;9.152;2023-03-24T17:53:21;2.08;;;1.10;;
65971;SDS011;52726;48.852;9.152;2023-03-24T17:55:51;1.00;;;0.90;;
65971;SDS011;52726;48.852;9.152;2023-03-24T17:58:17;1.00;;;0.77;;
65971;SDS011;52726;48.852;9.152;2023-03-24T18:00:43;1.02;;;1.00;;
65971;SDS011;52726;48.852;9.152;2023-03-24T18:03:09;1.85;;;0.93;;